createdAt,value
2022-08-19T00:00:25.540Z,7.05
2022-08-19T00:03:08.063Z,6.60
2022-08-19T00:05:36.939Z,7.80
2022-08-19T00:08:05.132Z,7.30
2022-08-19T00:10:35.209Z,7.20
2022-08-19T00:13:02.449Z,6.93
2022-08-19T00:15:29.562Z,7.63
2022-08-19T00:18:02.459Z,5.85
2022-08-19T00:20:31.258Z,6.38
2022-08-19T00:23:10.163Z,7.60
2022-08-19T00:25:37.668Z,6.82
2022-08-19T00:28:08.228Z,6.55
2022-08-19T00:30:37.924Z,7.28
2022-08-19T00:33:05.024Z,6.78
2022-08-19T00:35:32.511Z,6.55
2022-08-19T00:38:01.095Z,6.18
2022-08-19T00:40:30.301Z,7.03
2022-08-19T00:42:57.561Z,7.35
2022-08-19T00:45:26.745Z,7.55
2022-08-19T00:47:57.304Z,6.60
2022-08-19T00:50:25.175Z,6.95
2022-08-19T00:52:53.690Z,7.10
2022-08-19T00:55:25.318Z,6.82
2022-08-19T00:58:14.190Z,7.03
2022-08-19T01:00:41.893Z,6.63
2022-08-19T01:03:11.918Z,6.63
2022-08-19T01:05:42.566Z,7.15
2022-08-19T01:08:12.344Z,6.43
2022-08-19T01:10:43.853Z,7.03
2022-08-19T01:13:23.257Z,6.72
2022-08-19T01:16:04.116Z,6.53
2022-08-19T01:18:34.844Z,6.63
2022-08-19T01:21:07.350Z,7.90
2022-08-19T01:23:48.206Z,8.43
2022-08-19T01:26:17.673Z,6.55
2022-08-19T01:28:59.650Z,7.25
2022-08-19T01:31:33.108Z,7.22
2022-08-19T01:34:00.768Z,6.72
2022-08-19T01:36:29.210Z,7.15
2022-08-19T01:38:56.820Z,6.60
2022-08-19T01:41:25.610Z,6.72
2022-08-19T01:44:12.347Z,6.60
2022-08-19T01:46:41.386Z,7.25
2022-08-19T01:49:09.207Z,7.68
2022-08-19T01:51:39.981Z,6.70
2022-08-19T01:54:11.768Z,6.97
2022-08-19T01:56:39.815Z,6.97
2022-08-19T01:59:12.411Z,6.53
2022-08-19T02:01:47.055Z,6.00
2022-08-19T02:04:15.121Z,6.80
2022-08-19T02:06:42.294Z,7.25
2022-08-19T02:09:09.534Z,6.53
2022-08-19T02:11:37.702Z,6.93
2022-08-19T02:14:07.003Z,7.05
2022-08-19T02:16:39.766Z,7.97
2022-08-19T02:19:07.148Z,6.57
2022-08-19T02:21:51.832Z,6.55
2022-08-19T02:24:22.824Z,6.28
2022-08-19T02:26:52.585Z,6.65
2022-08-19T02:32:26.949Z,7.00
2022-08-19T02:34:54.055Z,6.47
2022-08-19T02:37:39.833Z,6.03
2022-08-19T02:40:12.504Z,7.60
2022-08-19T02:42:40.672Z,7.07
2022-08-19T02:45:08.763Z,6.88
2022-08-19T02:47:35.862Z,6.43
2022-08-19T02:50:03.324Z,6.20
2022-08-19T02:52:30.581Z,7.50
2022-08-19T02:54:58.693Z,6.43
2022-08-19T02:57:26.312Z,8.43
2022-08-19T02:59:53.418Z,8.60
2022-08-19T03:02:20.403Z,7.32
2022-08-19T03:04:47.480Z,6.65
2022-08-19T03:07:16.292Z,6.13
2022-08-19T03:09:43.692Z,6.72
2022-08-19T03:12:11.102Z,6.60
2022-08-19T03:14:38.264Z,6.45
2022-08-19T03:17:05.599Z,6.60
2022-08-19T03:19:32.711Z,7.00
2022-08-19T03:21:59.876Z,7.68
2022-08-19T03:24:26.927Z,6.82
2022-08-19T03:26:58.363Z,6.95
2022-08-19T03:29:30.799Z,7.32
2022-08-19T03:32:01.586Z,6.97
2022-08-19T03:34:30.327Z,6.93
2022-08-19T03:36:58.960Z,7.72
2022-08-19T03:39:26.143Z,6.72
2022-08-19T03:42:30.205Z,6.82
2022-08-19T03:44:40.845Z,6.85
2022-08-19T03:47:07.807Z,7.80
2022-08-19T03:49:36.852Z,6.82
2022-08-19T03:52:08.410Z,6.32
2022-08-19T03:54:35.881Z,7.45
2022-08-19T03:57:04.013Z,6.82
2022-08-19T03:59:33.368Z,6.95
2022-08-19T04:02:01.353Z,6.88
2022-08-19T04:04:29.198Z,7.35
2022-08-19T04:06:56.855Z,7.03
2022-08-19T04:09:23.881Z,8.02
2022-08-19T04:11:55.552Z,6.50
2022-08-19T04:14:25.771Z,7.10
2022-08-19T04:16:52.940Z,6.75
2022-08-19T04:19:20.001Z,7.38
2022-08-19T04:21:48.295Z,8.20
2022-08-19T04:24:15.258Z,7.38
2022-08-19T04:26:42.590Z,6.88
2022-08-19T04:29:13.787Z,7.85
2022-08-19T04:31:41.152Z,7.03
2022-08-19T04:34:09.255Z,7.05
2022-08-19T04:36:37.025Z,6.55
2022-08-19T04:39:06.931Z,8.18
2022-08-19T04:41:52.319Z,6.85
2022-08-19T04:44:19.592Z,6.75
2022-08-19T04:46:50.912Z,6.50
2022-08-19T04:49:20.240Z,6.60
2022-08-19T04:51:48.863Z,6.90
2022-08-19T04:54:23.934Z,7.20
2022-08-19T04:57:04.707Z,7.38
2022-08-19T04:59:31.697Z,6.63
2022-08-19T05:01:58.757Z,7.32
2022-08-19T05:04:25.735Z,6.82
2022-08-19T05:06:54.490Z,7.13
2022-08-19T05:09:28.002Z,6.43
2022-08-19T05:11:55.364Z,6.45
2022-08-19T05:14:22.856Z,7.15
2022-08-19T05:16:50.007Z,6.68
2022-08-19T05:19:35.495Z,7.43
2022-08-19T05:22:21.236Z,7.07
2022-08-19T05:25:11.258Z,7.88
2022-08-19T05:27:35.330Z,6.63
2022-08-19T05:30:02.666Z,6.05
2022-08-19T05:32:29.969Z,6.90
2022-08-19T05:34:57.175Z,7.15
2022-08-19T05:37:24.452Z,6.22
2022-08-19T05:39:51.772Z,6.60
2022-08-19T05:42:21.257Z,6.65
2022-08-19T05:44:50.243Z,6.68
2022-08-19T05:47:20.130Z,7.55
2022-08-19T05:49:47.737Z,7.00
2022-08-19T05:52:18.600Z,6.95
2022-08-19T05:54:51.026Z,6.85
2022-08-19T05:57:19.847Z,7.50
2022-08-19T05:59:52.733Z,7.53
2022-08-19T06:04:47.110Z,7.03
2022-08-19T06:07:14.259Z,7.30
2022-08-19T06:09:41.522Z,7.50
2022-08-19T06:12:35.582Z,7.10
2022-08-19T06:15:10.859Z,7.75
2022-08-19T06:17:38.188Z,7.70
2022-08-19T06:20:06.426Z,7.68
2022-08-19T06:22:33.476Z,6.93
2022-08-19T06:25:00.533Z,7.40
2022-08-19T06:27:27.563Z,7.75
2022-08-19T06:29:55.237Z,6.93
2022-08-19T06:32:22.395Z,7.35
2022-08-19T06:34:49.546Z,6.90
2022-08-19T06:37:16.582Z,6.55
2022-08-19T06:39:46.633Z,8.70
2022-08-19T06:42:17.626Z,7.07
2022-08-19T06:44:48.992Z,7.40
2022-08-19T06:47:24.021Z,8.07
2022-08-19T06:50:03.226Z,7.22
2022-08-19T06:52:31.916Z,7.20
2022-08-19T06:55:06.123Z,6.47
2022-08-19T06:57:34.578Z,6.93
2022-08-19T07:00:01.756Z,7.28
2022-08-19T07:02:28.912Z,7.13
2022-08-19T07:04:58.487Z,7.25
2022-08-19T07:07:26.195Z,6.95
2022-08-19T07:09:59.847Z,6.95
2022-08-19T07:12:38.044Z,7.50
2022-08-19T07:15:06.285Z,7.50
2022-08-19T07:17:34.592Z,7.60
2022-08-19T07:20:05.167Z,7.65
2022-08-19T07:22:35.375Z,6.83
2022-08-19T07:25:04.872Z,7.38
2022-08-19T07:27:33.487Z,6.85
2022-08-19T07:30:00.973Z,7.03
2022-08-19T07:32:28.072Z,7.47
2022-08-19T07:34:55.746Z,7.18
2022-08-19T07:37:27.339Z,8.55
2022-08-19T07:39:56.569Z,7.43
2022-08-19T07:42:23.766Z,7.55
2022-08-19T07:44:51.168Z,7.22
2022-08-19T07:47:50.190Z,7.07
2022-08-19T07:50:08.014Z,7.00
2022-08-19T07:52:35.888Z,7.05
2022-08-19T07:55:05.072Z,7.00
2022-08-19T07:57:32.340Z,7.18
2022-08-19T07:59:59.978Z,7.43
2022-08-19T08:02:26.969Z,7.85
2022-08-19T08:05:12.419Z,7.15
2022-08-19T08:07:58.842Z,6.90
2022-08-19T08:10:26.275Z,6.60
2022-08-19T08:13:10.249Z,7.50
2022-08-19T08:15:43.152Z,6.28
2022-08-19T08:18:12.023Z,6.97
2022-08-19T08:20:39.793Z,6.95
2022-08-19T08:23:26.989Z,7.10
2022-08-19T08:25:56.741Z,6.55
2022-08-19T08:28:29.504Z,9.40
2022-08-19T08:31:00.705Z,8.18
2022-08-19T08:33:33.805Z,8.85
2022-08-19T08:36:04.993Z,7.30
2022-08-19T08:38:39.003Z,7.43
2022-08-19T08:41:11.340Z,7.38
2022-08-19T08:43:42.562Z,6.30
2022-08-19T08:46:42.117Z,8.18
2022-08-19T08:49:14.990Z,7.45
2022-08-19T08:51:47.637Z,8.23
2022-08-19T08:54:16.356Z,7.72
2022-08-19T08:56:44.132Z,8.32
2022-08-19T08:59:22.335Z,7.40
2022-08-19T09:01:49.710Z,8.15
2022-08-19T09:04:16.855Z,7.20
2022-08-19T09:07:18.543Z,7.45
2022-08-19T09:10:09.986Z,6.35
2022-08-19T09:13:15.269Z,7.43
2022-08-19T09:15:45.846Z,7.30
2022-08-19T09:18:19.280Z,6.38
2022-08-19T09:20:48.539Z,7.20
2022-08-19T09:23:15.880Z,8.20
2022-08-19T09:25:43.026Z,6.95
2022-08-19T09:28:15.052Z,6.70
2022-08-19T09:30:49.449Z,6.45
2022-08-19T09:33:17.255Z,7.07
2022-08-19T09:35:53.064Z,7.72
2022-08-19T09:38:21.178Z,6.80
2022-08-19T09:40:48.214Z,7.05
2022-08-19T09:43:15.608Z,7.05
2022-08-19T09:46:02.903Z,7.32
2022-08-19T09:48:33.716Z,6.82
2022-08-19T09:51:18.037Z,7.38
2022-08-19T09:53:51.134Z,6.85
2022-08-19T09:56:21.240Z,6.18
2022-08-19T09:58:48.867Z,6.70
2022-08-19T10:01:24.141Z,7.47
2022-08-19T10:03:54.622Z,6.80
2022-08-19T10:06:23.003Z,6.47
2022-08-19T10:09:11.941Z,7.03
2022-08-19T10:11:46.875Z,6.70
2022-08-19T10:14:23.654Z,6.20
2022-08-19T10:16:53.004Z,7.28
2022-08-19T10:19:25.726Z,8.10
2022-08-19T10:21:54.382Z,7.68
2022-08-19T10:24:25.447Z,6.15
2022-08-19T10:26:55.801Z,6.05
2022-08-19T10:29:32.171Z,6.75
2022-08-19T10:32:03.160Z,7.47
2022-08-19T10:34:30.790Z,7.07
2022-08-19T10:37:00.924Z,6.25
2022-08-19T10:39:32.816Z,6.20
2022-08-19T10:42:14.578Z,6.07
2022-08-19T10:44:42.309Z,6.78
2022-08-19T10:47:17.693Z,6.15
2022-08-19T10:50:17.326Z,6.20
2022-08-19T10:52:49.910Z,4.93
2022-08-19T10:55:43.867Z,5.88
2022-08-19T10:58:50.192Z,5.72
2022-08-19T11:01:17.447Z,5.90
2022-08-19T11:03:46.792Z,5.50
2022-08-19T13:04:30.711Z,4.93
2022-08-19T13:07:10.053Z,5.97
2022-08-19T13:09:37.184Z,4.57
2022-08-19T13:12:08.282Z,4.90
2022-08-19T13:14:36.335Z,4.70
2022-08-19T13:17:09.850Z,4.90
2022-08-19T13:19:38.244Z,4.90
2022-08-19T13:22:07.318Z,5.47
2022-08-19T13:24:45.095Z,5.13
2022-08-19T13:27:14.340Z,5.22
2022-08-19T13:30:02.706Z,5.38
2022-08-19T13:32:49.407Z,5.50
2022-08-19T13:35:17.754Z,5.13
2022-08-19T13:37:45.296Z,4.95
2022-08-19T13:40:19.591Z,4.50
2022-08-19T13:42:48.507Z,5.75
2022-08-19T13:45:19.190Z,5.43
2022-08-19T13:47:50.520Z,5.93
2022-08-19T13:50:21.746Z,5.72
2022-08-19T13:52:48.946Z,5.60
2022-08-19T13:55:16.100Z,6.75
2022-08-19T13:57:56.678Z,6.72
2022-08-19T14:00:27.547Z,5.88
2022-08-19T14:03:18.351Z,5.53
2022-08-19T14:09:19.023Z,5.82
2022-08-19T14:11:47.803Z,6.95
2022-08-19T14:14:16.536Z,7.45
2022-08-19T14:16:58.094Z,8.50
2022-08-19T14:19:34.475Z,7.75
2022-08-19T14:22:09.397Z,8.00
2022-08-19T14:24:47.956Z,6.95
2022-08-19T14:27:16.666Z,5.95
2022-08-19T14:29:46.628Z,6.30
2022-08-19T14:46:29.904Z,6.38
2022-08-19T15:24:26.404Z,5.63
2022-08-19T15:37:50.745Z,5.82
2022-08-19T15:50:18.302Z,5.88
2022-08-19T15:52:54.614Z,5.97
2022-08-19T15:55:43.279Z,7.32
2022-08-19T16:11:45.749Z,6.53
2022-08-19T16:14:17.135Z,6.70
2022-08-19T16:19:28.201Z,5.15
2022-08-19T16:22:07.383Z,5.65
2022-08-19T16:24:34.446Z,5.63
2022-08-19T16:33:38.568Z,5.10
2022-08-19T16:43:44.654Z,5.13
2022-08-19T16:49:54.644Z,4.65
2022-08-19T16:52:27.255Z,5.88
2022-08-19T17:27:20.055Z,3.60
2022-08-19T17:30:00.224Z,3.30
2022-08-19T17:32:28.466Z,3.45
2022-08-19T17:34:57.520Z,4.65
2022-08-19T17:37:26.394Z,3.20
2022-08-19T17:39:55.875Z,3.38
2022-08-19T17:42:25.409Z,3.67
2022-08-19T17:44:54.501Z,3.40
2022-08-19T17:47:22.026Z,3.50
2022-08-19T17:49:49.094Z,3.47
2022-08-19T17:52:16.511Z,4.13
2022-08-19T17:54:44.907Z,3.92
2022-08-19T17:57:25.100Z,4.00
2022-08-19T18:00:19.133Z,4.57
2022-08-19T18:02:51.458Z,3.42
2022-08-19T18:05:23.864Z,4.35
2022-08-19T18:07:52.598Z,4.45
2022-08-19T18:11:23.787Z,4.03
2022-08-19T18:30:09.227Z,5.10
2022-08-19T18:32:54.038Z,3.70
2022-08-19T18:42:49.981Z,4.15
2022-08-19T18:45:37.672Z,4.25
2022-08-19T18:48:26.776Z,3.42
2022-08-19T18:50:58.933Z,4.40
2022-08-19T18:53:27.508Z,3.45
2022-08-19T18:55:58.443Z,3.88
2022-08-19T18:58:32.413Z,3.28
2022-08-19T19:01:10.771Z,4.13
2022-08-19T19:03:46.475Z,4.30
2022-08-19T19:06:25.976Z,4.40
2022-08-19T19:16:43.717Z,4.30
2022-08-19T19:28:56.806Z,3.92
2022-08-19T19:31:27.063Z,2.97
2022-08-19T19:37:02.649Z,3.50
